sensor_id;sensor_type;location;lat;lon;timestamp;pressure;altitude;pressure_sealevel;temperature
34023;BMP280;20673;48.980;8.138;2022-12-29T00:02:18;99567.22;;;12.49
34023;BMP280;20673;48.980;8.138;2022-12-29T00:04:44;99571.29;;;12.50
34023;BMP280;20673;48.980;8.138;2022-12-29T00:07:10;99569.28;;;12.56
34023;BMP280;20673;48.980;8.138;2022-12-29T00:09:37;99573.60;;;12.59
34023;BMP280;20673;48.980;8.138;2022-12-29T00:12:04;99574.60;;;12.59
34023;BMP280;20673;48.980;8.138;2022-12-29T00:14:30;99579.04;;;12.64
34023;BMP280;20673;48.980;8.138;2022-12-29T00:17:14;99577.03;;;12.57
34023;BMP280;20673;48.980;8.138;2022-12-29T00:19:41;99580.61;;;12.57
34023;BMP280;20673;48.980;8.138;2022-12-29T00:22:25;99584.11;;;12.59
34023;BMP280;20673;48.980;8.138;2022-12-29T00:25:11;99580.26;;;12.61
34023;BMP280;20673;48.980;8.138;2022-12-29T00:27:55;99586.09;;;12.72
34023;BMP280;20673;48.980;8.138;2022-12-29T00:30:40;99581.40;;;12.78
34023;BMP280;20673;48.980;8.138;2022-12-29T00:33:32;99588.75;;;12.85
34023;BMP280;20673;48.980;8.138;2022-12-29T00:38:49;99582.03;;;12.96
34023;BMP280;20673;48.980;8.138;2022-12-29T00:41:34;99572.48;;;12.93
34023;BMP280;20673;48.980;8.138;2022-12-29T00:44:19;99586.94;;;12.87
34023;BMP280;20673;48.980;8.138;2022-12-29T00:46:45;99591.00;;;12.84
34023;BMP280;20673;48.980;8.138;2022-12-29T00:49:13;99594.42;;;12.75
34023;BMP280;20673;48.980;8.138;2022-12-29T00:52:09;99598.57;;;12.68
34023;BMP280;20673;48.980;8.138;2022-12-29T00:54:37;99589.35;;;12.62
34023;BMP280;20673;48.980;8.138;2022-12-29T00:57:04;99591.56;;;12.62
34023;BMP280;20673;48.980;8.138;2022-12-29T00:59:31;99592.02;;;12.60
34023;BMP280;20673;48.980;8.138;2022-12-29T01:01:57;99592.70;;;12.54
34023;BMP280;20673;48.980;8.138;2022-12-29T01:04:25;99594.75;;;12.52
34023;BMP280;20673;48.980;8.138;2022-12-29T01:06:51;99598.15;;;12.56
34023;BMP280;20673;48.980;8.138;2022-12-29T01:09:18;99594.11;;;12.59
34023;BMP280;20673;48.980;8.138;2022-12-29T01:12:04;99600.11;;;12.61
34023;BMP280;20673;48.980;8.138;2022-12-29T01:14:30;99602.86;;;12.60
34023;BMP280;20673;48.980;8.138;2022-12-29T01:16:56;99584.95;;;12.65
34023;BMP280;20673;48.980;8.138;2022-12-29T01:19:23;99594.08;;;12.68
34023;BMP280;20673;48.980;8.138;2022-12-29T01:21:49;99588.96;;;12.66
34023;BMP280;20673;48.980;8.138;2022-12-29T01:24:16;99593.47;;;12.66
34023;BMP280;20673;48.980;8.138;2022-12-29T01:26:42;99588.72;;;12.62
34023;BMP280;20673;48.980;8.138;2022-12-29T01:29:08;99581.96;;;12.65
34023;BMP280;20673;48.980;8.138;2022-12-29T01:31:34;99589.68;;;12.62
34023;BMP280;20673;48.980;8.138;2022-12-29T01:34:01;99594.68;;;12.60
34023;BMP280;20673;48.980;8.138;2022-12-29T01:36:27;99595.59;;;12.64
34023;BMP280;20673;48.980;8.138;2022-12-29T01:38:53;99594.62;;;12.63
34023;BMP280;20673;48.980;8.138;2022-12-29T01:41:19;99594.56;;;12.60
34023;BMP280;20673;48.980;8.138;2022-12-29T01:46:34;99588.90;;;12.60
34023;BMP280;20673;48.980;8.138;2022-12-29T01:49:16;99590.65;;;12.58
34023;BMP280;20673;48.980;8.138;2022-12-29T01:51:43;99587.65;;;12.59
34023;BMP280;20673;48.980;8.138;2022-12-29T01:54:13;99589.08;;;12.57
34023;BMP280;20673;48.980;8.138;2022-12-29T01:56:38;99586.42;;;12.64
34023;BMP280;20673;48.980;8.138;2022-12-29T01:59:08;99579.72;;;12.62
34023;BMP280;20673;48.980;8.138;2022-12-29T02:01:34;99578.81;;;12.59
34023;BMP280;20673;48.980;8.138;2022-12-29T02:04:01;99574.97;;;12.58
34023;BMP280;20673;48.980;8.138;2022-12-29T02:06:36;99576.29;;;12.52
34023;BMP280;20673;48.980;8.138;2022-12-29T02:09:02;99580.93;;;12.59
34023;BMP280;20673;48.980;8.138;2022-12-29T02:11:29;99578.98;;;12.59
34023;BMP280;20673;48.980;8.138;2022-12-29T02:13:56;99579.00;;;12.67
34023;BMP280;20673;48.980;8.138;2022-12-29T02:22:34;99572.72;;;12.89
34023;BMP280;20673;48.980;8.138;2022-12-29T02:25:39;99569.04;;;12.99
34023;BMP280;20673;48.980;8.138;2022-12-29T02:31:09;99572.60;;;13.27
34023;BMP280;20673;48.980;8.138;2022-12-29T02:38:50;99521.36;;;13.08
34023;BMP280;20673;48.980;8.138;2022-12-29T02:41:34;99551.61;;;12.92
34023;BMP280;20673;48.980;8.138;2022-12-29T02:44:24;99548.07;;;12.83
34023;BMP280;20673;48.980;8.138;2022-12-29T02:46:55;99536.68;;;12.84
34023;BMP280;20673;48.980;8.138;2022-12-29T02:52:14;99544.49;;;12.90
34023;BMP280;20673;48.980;8.138;2022-12-29T02:54:40;99543.93;;;13.00
34023;BMP280;20673;48.980;8.138;2022-12-29T02:57:15;99530.93;;;13.04
34023;BMP280;20673;48.980;8.138;2022-12-29T02:59:43;99550.18;;;13.07
34023;BMP280;20673;48.980;8.138;2022-12-29T03:10:35;99544.50;;;12.94
34023;BMP280;20673;48.980;8.138;2022-12-29T03:19:00;99530.11;;;12.82
34023;BMP280;20673;48.980;8.138;2022-12-29T03:24:34;99535.12;;;12.87
34023;BMP280;20673;48.980;8.138;2022-12-29T03:27:02;99522.18;;;12.92
34023;BMP280;20673;48.980;8.138;2022-12-29T03:29:32;99523.90;;;12.96
34023;BMP280;20673;48.980;8.138;2022-12-29T03:31:59;99524.36;;;12.96
34023;BMP280;20673;48.980;8.138;2022-12-29T03:34:27;99508.23;;;13.02
34023;BMP280;20673;48.980;8.138;2022-12-29T03:36:57;99502.07;;;13.00
34023;BMP280;20673;48.980;8.138;2022-12-29T03:39:23;99494.47;;;12.96
34023;BMP280;20673;48.980;8.138;2022-12-29T03:41:54;99471.83;;;12.96
34023;BMP280;20673;48.980;8.138;2022-12-29T03:44:20;99472.58;;;12.88
34023;BMP280;20673;48.980;8.138;2022-12-29T03:46:46;99488.15;;;12.84
34023;BMP280;20673;48.980;8.138;2022-12-29T03:49:12;99476.47;;;12.93
34023;BMP280;20673;48.980;8.138;2022-12-29T03:51:38;99494.58;;;12.92
34023;BMP280;20673;48.980;8.138;2022-12-29T03:54:04;99491.97;;;12.90
34023;BMP280;20673;48.980;8.138;2022-12-29T03:56:30;99490.73;;;12.94
34023;BMP280;20673;48.980;8.138;2022-12-29T03:58:56;99487.43;;;12.93
34023;BMP280;20673;48.980;8.138;2022-12-29T04:01:22;99490.99;;;12.84
34023;BMP280;20673;48.980;8.138;2022-12-29T04:03:48;99489.20;;;12.84
34023;BMP280;20673;48.980;8.138;2022-12-29T04:06:14;99487.33;;;12.77
34023;BMP280;20673;48.980;8.138;2022-12-29T04:08:39;99485.77;;;12.79
34023;BMP280;20673;48.980;8.138;2022-12-29T04:11:05;99480.80;;;12.80
34023;BMP280;20673;48.980;8.138;2022-12-29T04:13:31;99480.39;;;12.81
34023;BMP280;20673;48.980;8.138;2022-12-29T04:15:57;99489.65;;;12.85
34023;BMP280;20673;48.980;8.138;2022-12-29T04:18:23;99487.63;;;12.82
34023;BMP280;20673;48.980;8.138;2022-12-29T04:20:49;99483.79;;;12.83
34023;BMP280;20673;48.980;8.138;2022-12-29T04:23:30;99478.17;;;12.73
34023;BMP280;20673;48.980;8.138;2022-12-29T04:25:56;99484.22;;;12.73
34023;BMP280;20673;48.980;8.138;2022-12-29T04:28:22;99475.90;;;12.77
34023;BMP280;20673;48.980;8.138;2022-12-29T04:30:48;99476.50;;;12.83
34023;BMP280;20673;48.980;8.138;2022-12-29T04:33:14;99482.47;;;12.80
34023;BMP280;20673;48.980;8.138;2022-12-29T04:35:41;99474.97;;;12.80
34023;BMP280;20673;48.980;8.138;2022-12-29T04:38:07;99473.04;;;12.81
34023;BMP280;20673;48.980;8.138;2022-12-29T04:40:33;99478.00;;;12.83
34023;BMP280;20673;48.980;8.138;2022-12-29T04:42:59;99473.43;;;12.78
34023;BMP280;20673;48.980;8.138;2022-12-29T04:45:25;99482.26;;;12.81
34023;BMP280;20673;48.980;8.138;2022-12-29T04:47:51;99481.53;;;12.85
34023;BMP280;20673;48.980;8.138;2022-12-29T04:50:17;99486.33;;;12.83
34023;BMP280;20673;48.980;8.138;2022-12-29T04:52:43;99483.22;;;12.81
34023;BMP280;20673;48.980;8.138;2022-12-29T04:55:09;99478.15;;;12.78
34023;BMP280;20673;48.980;8.138;2022-12-29T04:57:35;99490.72;;;12.74
34023;BMP280;20673;48.980;8.138;2022-12-29T05:00:01;99482.11;;;12.71
34023;BMP280;20673;48.980;8.138;2022-12-29T05:02:27;99481.22;;;12.59
34023;BMP280;20673;48.980;8.138;2022-12-29T05:04:53;99473.81;;;12.48
34023;BMP280;20673;48.980;8.138;2022-12-29T05:07:19;99471.05;;;12.42
34023;BMP280;20673;48.980;8.138;2022-12-29T05:09:45;99468.62;;;12.37
34023;BMP280;20673;48.980;8.138;2022-12-29T05:12:11;99465.50;;;12.24
34023;BMP280;20673;48.980;8.138;2022-12-29T05:14:36;99457.90;;;12.30
34023;BMP280;20673;48.980;8.138;2022-12-29T05:17:02;99462.32;;;12.47
34023;BMP280;20673;48.980;8.138;2022-12-29T05:19:28;99468.66;;;12.62
34023;BMP280;20673;48.980;8.138;2022-12-29T05:21:54;99462.78;;;12.64
34023;BMP280;20673;48.980;8.138;2022-12-29T05:24:20;99453.28;;;12.69
34023;BMP280;20673;48.980;8.138;2022-12-29T05:26:46;99446.65;;;12.75
34023;BMP280;20673;48.980;8.138;2022-12-29T05:29:12;99461.17;;;12.73
34023;BMP280;20673;48.980;8.138;2022-12-29T05:31:38;99449.39;;;12.72
34023;BMP280;20673;48.980;8.138;2022-12-29T05:34:04;99457.45;;;12.68
34023;BMP280;20673;48.980;8.138;2022-12-29T05:36:31;99454.37;;;12.62
34023;BMP280;20673;48.980;8.138;2022-12-29T05:38:57;99458.25;;;12.67
34023;BMP280;20673;48.980;8.138;2022-12-29T05:41:23;99454.53;;;12.68
34023;BMP280;20673;48.980;8.138;2022-12-29T05:43:49;99456.86;;;12.57
34023;BMP280;20673;48.980;8.138;2022-12-29T05:46:15;99451.75;;;12.53
34023;BMP280;20673;48.980;8.138;2022-12-29T05:48:41;99454.26;;;12.50
34023;BMP280;20673;48.980;8.138;2022-12-29T05:51:06;99441.18;;;12.51
34023;BMP280;20673;48.980;8.138;2022-12-29T05:53:32;99445.31;;;12.41
34023;BMP280;20673;48.980;8.138;2022-12-29T05:55:58;99443.59;;;12.35
34023;BMP280;20673;48.980;8.138;2022-12-29T05:58:24;99451.92;;;12.34
34023;BMP280;20673;48.980;8.138;2022-12-29T06:00:51;99448.68;;;12.34
34023;BMP280;20673;48.980;8.138;2022-12-29T06:03:17;99444.52;;;12.40
34023;BMP280;20673;48.980;8.138;2022-12-29T06:05:45;99446.31;;;12.49
34023;BMP280;20673;48.980;8.138;2022-12-29T06:08:11;99440.89;;;12.52
34023;BMP280;20673;48.980;8.138;2022-12-29T06:10:37;99444.97;;;12.65
34023;BMP280;20673;48.980;8.138;2022-12-29T06:13:03;99446.72;;;12.66
34023;BMP280;20673;48.980;8.138;2022-12-29T06:15:32;99433.39;;;12.66
34023;BMP280;20673;48.980;8.138;2022-12-29T06:17:58;99430.29;;;12.67
34023;BMP280;20673;48.980;8.138;2022-12-29T06:20:23;99424.58;;;12.72
34023;BMP280;20673;48.980;8.138;2022-12-29T06:22:50;99427.98;;;12.75
34023;BMP280;20673;48.980;8.138;2022-12-29T06:25:16;99414.29;;;12.72
34023;BMP280;20673;48.980;8.138;2022-12-29T06:27:42;99416.59;;;12.77
34023;BMP280;20673;48.980;8.138;2022-12-29T06:30:09;99421.07;;;12.74
34023;BMP280;20673;48.980;8.138;2022-12-29T06:32:35;99414.98;;;12.75
34023;BMP280;20673;48.980;8.138;2022-12-29T06:35:03;99410.01;;;12.77
34023;BMP280;20673;48.980;8.138;2022-12-29T06:37:29;99420.18;;;12.65
34023;BMP280;20673;48.980;8.138;2022-12-29T06:39:55;99420.68;;;12.63
34023;BMP280;20673;48.980;8.138;2022-12-29T06:42:21;99418.61;;;12.55
34023;BMP280;20673;48.980;8.138;2022-12-29T06:44:47;99424.93;;;12.57
34023;BMP280;20673;48.980;8.138;2022-12-29T06:47:13;99410.00;;;12.60
34023;BMP280;20673;48.980;8.138;2022-12-29T06:49:39;99422.58;;;12.61
34023;BMP280;20673;48.980;8.138;2022-12-29T06:52:05;99415.43;;;12.64
34023;BMP280;20673;48.980;8.138;2022-12-29T06:54:31;99420.04;;;12.66
34023;BMP280;20673;48.980;8.138;2022-12-29T06:56:57;99434.34;;;12.67
34023;BMP280;20673;48.980;8.138;2022-12-29T06:59:24;99432.47;;;12.67
34023;BMP280;20673;48.980;8.138;2022-12-29T07:01:51;99429.97;;;12.65
34023;BMP280;20673;48.980;8.138;2022-12-29T07:04:17;99426.60;;;12.63
34023;BMP280;20673;48.980;8.138;2022-12-29T07:06:43;99423.64;;;12.59
34023;BMP280;20673;48.980;8.138;2022-12-29T07:09:09;99418.29;;;12.65
34023;BMP280;20673;48.980;8.138;2022-12-29T07:11:35;99431.26;;;12.68
34023;BMP280;20673;48.980;8.138;2022-12-29T07:14:02;99436.51;;;12.65
34023;BMP280;20673;48.980;8.138;2022-12-29T07:16:28;99425.42;;;12.67
34023;BMP280;20673;48.980;8.138;2022-12-29T07:18:56;99439.89;;;12.58
34023;BMP280;20673;48.980;8.138;2022-12-29T07:21:22;99441.23;;;12.56
34023;BMP280;20673;48.980;8.138;2022-12-29T07:23:48;99437.22;;;12.52
34023;BMP280;20673;48.980;8.138;2022-12-29T07:26:15;99429.97;;;12.50
34023;BMP280;20673;48.980;8.138;2022-12-29T07:28:43;99444.01;;;12.58
34023;BMP280;20673;48.980;8.138;2022-12-29T07:31:15;99437.54;;;12.62
34023;BMP280;20673;48.980;8.138;2022-12-29T07:33:39;99437.47;;;12.67
34023;BMP280;20673;48.980;8.138;2022-12-29T07:36:06;99440.14;;;12.65
34023;BMP280;20673;48.980;8.138;2022-12-29T07:38:32;99433.85;;;12.64
34023;BMP280;20673;48.980;8.138;2022-12-29T07:40:58;99442.34;;;12.67
34023;BMP280;20673;48.980;8.138;2022-12-29T07:43:25;99443.51;;;12.67
34023;BMP280;20673;48.980;8.138;2022-12-29T07:45:51;99449.03;;;12.68
34023;BMP280;20673;48.980;8.138;2022-12-29T07:48:17;99426.68;;;12.70
34023;BMP280;20673;48.980;8.138;2022-12-29T07:50:43;99445.51;;;12.71
34023;BMP280;20673;48.980;8.138;2022-12-29T07:53:09;99445.97;;;12.72
34023;BMP280;20673;48.980;8.138;2022-12-29T07:55:35;99454.87;;;12.74
34023;BMP280;20673;48.980;8.138;2022-12-29T07:58:01;99449.10;;;12.70
34023;BMP280;20673;48.980;8.138;2022-12-29T08:00:27;99460.59;;;12.72
34023;BMP280;20673;48.980;8.138;2022-12-29T08:02:53;99468.93;;;12.70
34023;BMP280;20673;48.980;8.138;2022-12-29T08:05:20;99466.76;;;12.70
34023;BMP280;20673;48.980;8.138;2022-12-29T08:07:47;99469.78;;;12.76
34023;BMP280;20673;48.980;8.138;2022-12-29T08:10:14;99473.92;;;12.74
34023;BMP280;20673;48.980;8.138;2022-12-29T08:12:41;99469.60;;;12.79
34023;BMP280;20673;48.980;8.138;2022-12-29T08:15:09;99484.62;;;12.82
34023;BMP280;20673;48.980;8.138;2022-12-29T08:17:35;99481.84;;;12.88
34023;BMP280;20673;48.980;8.138;2022-12-29T08:20:02;99488.72;;;12.88
34023;BMP280;20673;48.980;8.138;2022-12-29T08:22:31;99480.20;;;12.90
34023;BMP280;20673;48.980;8.138;2022-12-29T08:24:58;99493.42;;;12.90
34023;BMP280;20673;48.980;8.138;2022-12-29T08:27:25;99495.90;;;12.92
34023;BMP280;20673;48.980;8.138;2022-12-29T08:29:51;99491.92;;;13.03
34023;BMP280;20673;48.980;8.138;2022-12-29T08:32:17;99500.42;;;13.12
34023;BMP280;20673;48.980;8.138;2022-12-29T08:34:44;99506.89;;;13.14
34023;BMP280;20673;48.980;8.138;2022-12-29T08:37:10;99511.55;;;13.17
34023;BMP280;20673;48.980;8.138;2022-12-29T08:39:36;99515.42;;;13.18
34023;BMP280;20673;48.980;8.138;2022-12-29T08:42:02;99521.79;;;13.18
34023;BMP280;20673;48.980;8.138;2022-12-29T08:44:28;99516.37;;;13.20
34023;BMP280;20673;48.980;8.138;2022-12-29T08:46:54;99515.64;;;13.17
34023;BMP280;20673;48.980;8.138;2022-12-29T08:49:20;99512.48;;;13.16
34023;BMP280;20673;48.980;8.138;2022-12-29T08:51:46;99514.03;;;13.15
34023;BMP280;20673;48.980;8.138;2022-12-29T08:54:12;99513.47;;;13.11
34023;BMP280;20673;48.980;8.138;2022-12-29T08:56:38;99507.36;;;13.13
34023;BMP280;20673;48.980;8.138;2022-12-29T08:59:04;99505.61;;;13.14
34023;BMP280;20673;48.980;8.138;2022-12-29T09:01:30;99508.17;;;13.23
34023;BMP280;20673;48.980;8.138;2022-12-29T09:03:56;99510.25;;;13.41
34023;BMP280;20673;48.980;8.138;2022-12-29T09:06:22;99524.33;;;13.59
34023;BMP280;20673;48.980;8.138;2022-12-29T09:08:48;99510.48;;;13.72
34023;BMP280;20673;48.980;8.138;2022-12-29T09:11:21;99521.01;;;13.85
34023;BMP280;20673;48.980;8.138;2022-12-29T09:13:47;99522.90;;;13.84
34023;BMP280;20673;48.980;8.138;2022-12-29T09:16:14;99517.08;;;13.80
34023;BMP280;20673;48.980;8.138;2022-12-29T09:18:40;99527.68;;;13.82
34023;BMP280;20673;48.980;8.138;2022-12-29T09:21:07;99535.64;;;13.84
34023;BMP280;20673;48.980;8.138;2022-12-29T09:23:34;99531.29;;;13.92
34023;BMP280;20673;48.980;8.138;2022-12-29T09:26:00;99537.94;;;13.95
34023;BMP280;20673;48.980;8.138;2022-12-29T09:28:26;99542.49;;;14.04
34023;BMP280;20673;48.980;8.138;2022-12-29T09:30:52;99549.06;;;13.94
34023;BMP280;20673;48.980;8.138;2022-12-29T09:33:18;99546.13;;;13.91
34023;BMP280;20673;48.980;8.138;2022-12-29T09:35:50;99553.34;;;13.92
34023;BMP280;20673;48.980;8.138;2022-12-29T09:38:13;99555.81;;;14.22
34023;BMP280;20673;48.980;8.138;2022-12-29T09:40:44;99550.42;;;14.59
34023;BMP280;20673;48.980;8.138;2022-12-29T09:51:26;99577.18;;;14.02
34023;BMP280;20673;48.980;8.138;2022-12-29T09:54:03;99565.72;;;13.94
34023;BMP280;20673;48.980;8.138;2022-12-29T09:56:28;99572.23;;;13.87
34023;BMP280;20673;48.980;8.138;2022-12-29T09:59:11;99582.98;;;13.80
34023;BMP280;20673;48.980;8.138;2022-12-29T10:01:41;99604.22;;;13.76
34023;BMP280;20673;48.980;8.138;2022-12-29T10:04:05;99614.64;;;13.61
34023;BMP280;20673;48.980;8.138;2022-12-29T10:09:33;99582.00;;;13.43
34023;BMP280;20673;48.980;8.138;2022-12-29T10:15:09;99579.70;;;13.32
34023;BMP280;20673;48.980;8.138;2022-12-29T10:17:58;99578.27;;;13.26
34023;BMP280;20673;48.980;8.138;2022-12-29T10:20:27;99584.99;;;13.19
34023;BMP280;20673;48.980;8.138;2022-12-29T10:25:31;99589.08;;;13.18
34023;BMP280;20673;48.980;8.138;2022-12-29T10:28:00;99596.84;;;13.12
34023;BMP280;20673;48.980;8.138;2022-12-29T10:30:28;99597.84;;;13.12
34023;BMP280;20673;48.980;8.138;2022-12-29T10:32:57;99596.01;;;13.09
34023;BMP280;20673;48.980;8.138;2022-12-29T10:35:28;99596.45;;;13.06
34023;BMP280;20673;48.980;8.138;2022-12-29T10:38:15;99590.56;;;12.99
34023;BMP280;20673;48.980;8.138;2022-12-29T10:40:50;99577.12;;;13.00
34023;BMP280;20673;48.980;8.138;2022-12-29T10:43:33;99596.34;;;13.01
34023;BMP280;20673;48.980;8.138;2022-12-29T10:46:01;99582.78;;;13.03
34023;BMP280;20673;48.980;8.138;2022-12-29T10:48:32;99585.20;;;13.11
34023;BMP280;20673;48.980;8.138;2022-12-29T10:51:01;99590.59;;;13.61
34023;BMP280;20673;48.980;8.138;2022-12-29T10:53:38;99586.92;;;14.06
34023;BMP280;20673;48.980;8.138;2022-12-29T10:55:58;99577.75;;;14.59
34023;BMP280;20673;48.980;8.138;2022-12-29T10:58:26;99579.96;;;15.09
34023;BMP280;20673;48.980;8.138;2022-12-29T11:00:53;99575.54;;;15.57
34023;BMP280;20673;48.980;8.138;2022-12-29T11:06:11;99569.84;;;16.00
34023;BMP280;20673;48.980;8.138;2022-12-29T11:08:39;99564.97;;;15.96
34023;BMP280;20673;48.980;8.138;2022-12-29T11:11:09;99572.73;;;15.83
34023;BMP280;20673;48.980;8.138;2022-12-29T11:13:47;99567.93;;;16.04
34023;BMP280;20673;48.980;8.138;2022-12-29T11:16:13;99583.61;;;15.92
34023;BMP280;20673;48.980;8.138;2022-12-29T11:18:40;99571.79;;;16.35
34023;BMP280;20673;48.980;8.138;2022-12-29T11:21:32;99567.84;;;16.38
34023;BMP280;20673;48.980;8.138;2022-12-29T11:24:04;99579.23;;;16.93
34023;BMP280;20673;48.980;8.138;2022-12-29T11:26:32;99573.54;;;17.46
34023;BMP280;20673;48.980;8.138;2022-12-29T11:29:22;99576.61;;;17.12
34023;BMP280;20673;48.980;8.138;2022-12-29T11:31:58;99579.42;;;17.08
34023;BMP280;20673;48.980;8.138;2022-12-29T11:34:32;99577.51;;;17.06
34023;BMP280;20673;48.980;8.138;2022-12-29T11:37:06;99562.62;;;17.06
34023;BMP280;20673;48.980;8.138;2022-12-29T11:39:44;99572.68;;;16.61
34023;BMP280;20673;48.980;8.138;2022-12-29T11:42:15;99568.80;;;16.60
34023;BMP280;20673;48.980;8.138;2022-12-29T11:44:46;99559.82;;;16.75
34023;BMP280;20673;48.980;8.138;2022-12-29T11:47:22;99560.59;;;16.22
34023;BMP280;20673;48.980;8.138;2022-12-29T11:49:50;99561.29;;;15.75
34023;BMP280;20673;48.980;8.138;2022-12-29T11:52:23;99563.14;;;15.54
34023;BMP280;20673;48.980;8.138;2022-12-29T11:54:50;99565.43;;;15.27
34023;BMP280;20673;48.980;8.138;2022-12-29T11:57:17;99561.65;;;15.23
34023;BMP280;20673;48.980;8.138;2022-12-29T11:59:54;99549.01;;;15.11
34023;BMP280;20673;48.980;8.138;2022-12-29T12:02:42;99552.75;;;15.16
34023;BMP280;20673;48.980;8.138;2022-12-29T12:05:23;99562.26;;;15.24
34023;BMP280;20673;48.980;8.138;2022-12-29T12:07:55;99556.41;;;15.38
34023;BMP280;20673;48.980;8.138;2022-12-29T12:10:30;99538.55;;;15.31
34023;BMP280;20673;48.980;8.138;2022-12-29T12:13:03;99547.79;;;15.26
34023;BMP280;20673;48.980;8.138;2022-12-29T12:15:34;99555.34;;;15.22
34023;BMP280;20673;48.980;8.138;2022-12-29T12:18:28;99541.32;;;15.11
34023;BMP280;20673;48.980;8.138;2022-12-29T12:20:56;99560.03;;;15.25
34023;BMP280;20673;48.980;8.138;2022-12-29T12:26:29;99559.48;;;15.19
34023;BMP280;20673;48.980;8.138;2022-12-29T12:29:10;99554.87;;;15.11
34023;BMP280;20673;48.980;8.138;2022-12-29T12:31:41;99561.83;;;15.02
34023;BMP280;20673;48.980;8.138;2022-12-29T12:34:11;99560.90;;;14.90
34023;BMP280;20673;48.980;8.138;2022-12-29T12:36:49;99557.53;;;14.82
34023;BMP280;20673;48.980;8.138;2022-12-29T12:42:05;99555.08;;;14.58
34023;BMP280;20673;48.980;8.138;2022-12-29T12:45:10;99562.56;;;14.53
34023;BMP280;20673;48.980;8.138;2022-12-29T12:47:13;99552.47;;;14.40
34023;BMP280;20673;48.980;8.138;2022-12-29T12:55:47;99538.81;;;14.21
34023;BMP280;20673;48.980;8.138;2022-12-29T13:01:32;99521.51;;;14.28
34023;BMP280;20673;48.980;8.138;2022-12-29T13:06:44;99539.00;;;14.23
34023;BMP280;20673;48.980;8.138;2022-12-29T13:09:00;99527.53;;;14.21
34023;BMP280;20673;48.980;8.138;2022-12-29T13:14:28;99529.72;;;14.11
34023;BMP280;20673;48.980;8.138;2022-12-29T13:17:22;99531.09;;;14.00
34023;BMP280;20673;48.980;8.138;2022-12-29T13:22:23;99534.17;;;13.71
34023;BMP280;20673;48.980;8.138;2022-12-29T13:27:35;99543.90;;;13.33
34023;BMP280;20673;48.980;8.138;2022-12-29T13:33:17;99552.54;;;13.04
34023;BMP280;20673;48.980;8.138;2022-12-29T13:41:16;99556.24;;;12.66
34023;BMP280;20673;48.980;8.138;2022-12-29T13:43:43;99556.72;;;12.50
34023;BMP280;20673;48.980;8.138;2022-12-29T13:46:15;99566.72;;;12.34
34023;BMP280;20673;48.980;8.138;2022-12-29T13:48:59;99541.78;;;12.13
34023;BMP280;20673;48.980;8.138;2022-12-29T13:51:26;99555.54;;;12.00
34023;BMP280;20673;48.980;8.138;2022-12-29T13:54:07;99558.30;;;11.94
34023;BMP280;20673;48.980;8.138;2022-12-29T13:56:45;99569.26;;;11.86
34023;BMP280;20673;48.980;8.138;2022-12-29T14:02:09;99579.24;;;11.84
34023;BMP280;20673;48.980;8.138;2022-12-29T14:04:31;99582.65;;;11.73
34023;BMP280;20673;48.980;8.138;2022-12-29T14:07:02;99573.29;;;11.68
34023;BMP280;20673;48.980;8.138;2022-12-29T14:17:40;99587.75;;;11.43
34023;BMP280;20673;48.980;8.138;2022-12-29T14:20:21;99608.62;;;11.33
34023;BMP280;20673;48.980;8.138;2022-12-29T14:22:59;99601.00;;;11.29
34023;BMP280;20673;48.980;8.138;2022-12-29T14:28:47;99597.31;;;11.16
34023;BMP280;20673;48.980;8.138;2022-12-29T14:36:58;99605.89;;;11.17
34023;BMP280;20673;48.980;8.138;2022-12-29T14:39:41;99612.12;;;11.19
34023;BMP280;20673;48.980;8.138;2022-12-29T14:50:16;99610.17;;;11.20
34023;BMP280;20673;48.980;8.138;2022-12-29T14:58:01;99601.53;;;11.09
34023;BMP280;20673;48.980;8.138;2022-12-29T15:00:35;99606.56;;;11.07
34023;BMP280;20673;48.980;8.138;2022-12-29T15:03:07;99628.92;;;11.05
34023;BMP280;20673;48.980;8.138;2022-12-29T15:06:07;99618.60;;;11.04
34023;BMP280;20673;48.980;8.138;2022-12-29T15:08:42;99609.90;;;11.03
34023;BMP280;20673;48.980;8.138;2022-12-29T15:11:17;99602.75;;;11.02
34023;BMP280;20673;48.980;8.138;2022-12-29T15:13:44;99609.20;;;11.02
34023;BMP280;20673;48.980;8.138;2022-12-29T15:18:57;99607.23;;;10.89
34023;BMP280;20673;48.980;8.138;2022-12-29T15:21:29;99611.18;;;10.87
34023;BMP280;20673;48.980;8.138;2022-12-29T15:23:56;99615.64;;;10.80
34023;BMP280;20673;48.980;8.138;2022-12-29T15:26:22;99624.45;;;10.71
34023;BMP280;20673;48.980;8.138;2022-12-29T15:28:50;99631.79;;;10.70
34023;BMP280;20673;48.980;8.138;2022-12-29T15:31:22;99642.94;;;10.59
34023;BMP280;20673;48.980;8.138;2022-12-29T15:33:53;99639.89;;;10.54
34023;BMP280;20673;48.980;8.138;2022-12-29T15:38:50;99642.70;;;10.45
34023;BMP280;20673;48.980;8.138;2022-12-29T15:41:39;99647.00;;;10.41
34023;BMP280;20673;48.980;8.138;2022-12-29T15:46:36;99648.97;;;10.31
34023;BMP280;20673;48.980;8.138;2022-12-29T15:49:07;99649.08;;;10.30
34023;BMP280;20673;48.980;8.138;2022-12-29T15:51:37;99647.21;;;10.30
34023;BMP280;20673;48.980;8.138;2022-12-29T15:54:04;99658.08;;;10.29
34023;BMP280;20673;48.980;8.138;2022-12-29T15:56:31;99660.60;;;10.27
34023;BMP280;20673;48.980;8.138;2022-12-29T15:58:59;99661.69;;;10.30
34023;BMP280;20673;48.980;8.138;2022-12-29T16:01:36;99668.26;;;10.31
34023;BMP280;20673;48.980;8.138;2022-12-29T16:04:08;99679.07;;;10.31
34023;BMP280;20673;48.980;8.138;2022-12-29T16:06:37;99683.37;;;10.36
34023;BMP280;20673;48.980;8.138;2022-12-29T16:09:14;99680.11;;;10.38
34023;BMP280;20673;48.980;8.138;2022-12-29T16:14:15;99685.42;;;10.36
34023;BMP280;20673;48.980;8.138;2022-12-29T16:16:43;99689.37;;;10.34
34023;BMP280;20673;48.980;8.138;2022-12-29T16:21:44;99692.79;;;10.35
34023;BMP280;20673;48.980;8.138;2022-12-29T16:24:18;99695.89;;;10.38
34023;BMP280;20673;48.980;8.138;2022-12-29T16:27:09;99695.98;;;10.40
34023;BMP280;20673;48.980;8.138;2022-12-29T16:29:36;99698.09;;;10.38
34023;BMP280;20673;48.980;8.138;2022-12-29T16:32:21;99696.24;;;10.41
34023;BMP280;20673;48.980;8.138;2022-12-29T16:37:29;99696.39;;;10.38
34023;BMP280;20673;48.980;8.138;2022-12-29T16:39:55;99703.43;;;10.41
34023;BMP280;20673;48.980;8.138;2022-12-29T16:42:35;99704.87;;;10.40
34023;BMP280;20673;48.980;8.138;2022-12-29T16:48:16;99706.08;;;10.46
34023;BMP280;20673;48.980;8.138;2022-12-29T16:50:42;99706.02;;;10.49